createdAt,value
2022-09-06T00:00:26.598Z,955.47
2022-09-06T00:01:26.587Z,955.48
2022-09-06T00:02:26.615Z,955.42
2022-09-06T00:03:26.566Z,955.51
2022-09-06T00:04:26.662Z,955.44
2022-09-06T00:05:26.567Z,955.40
2022-09-06T00:06:26.527Z,955.47
2022-09-06T00:07:26.516Z,955.41
2022-09-06T00:08:26.658Z,955.43
2022-09-06T00:09:26.527Z,955.34
2022-09-06T00:10:26.495Z,955.35
2022-09-06T00:11:26.476Z,955.36
2022-09-06T00:12:26.456Z,955.30
2022-09-06T00:13:26.448Z,955.30
2022-09-06T00:14:26.435Z,955.26
2022-09-06T00:15:26.601Z,955.27
2022-09-06T00:16:30.282Z,955.29
2022-09-06T00:17:26.404Z,955.23
2022-09-06T00:18:26.477Z,955.24
2022-09-06T00:19:26.388Z,955.24
2022-09-06T00:20:26.414Z,955.26
2022-09-06T00:21:26.364Z,955.29
2022-09-06T00:22:26.344Z,955.30
2022-09-06T00:23:26.379Z,955.35
2022-09-06T00:24:26.315Z,955.29
2022-09-06T00:25:26.313Z,955.32
2022-09-06T00:26:26.304Z,955.31
2022-09-06T00:27:26.284Z,955.36
2022-09-06T00:28:26.512Z,955.38
2022-09-06T00:29:26.264Z,955.36
2022-09-06T00:30:26.286Z,955.35
2022-09-06T00:31:26.338Z,955.34
2022-09-06T00:32:26.227Z,955.40
2022-09-06T00:33:26.221Z,955.40
2022-09-06T00:34:26.255Z,955.44
2022-09-06T00:35:26.192Z,955.38
2022-09-06T00:36:26.173Z,955.38
2022-09-06T00:37:26.213Z,955.49
2022-09-06T00:38:26.205Z,955.47
2022-09-06T00:39:26.153Z,955.50
2022-09-06T00:40:26.132Z,955.45
2022-09-06T00:41:26.132Z,955.49
2022-09-06T00:42:26.111Z,955.49
2022-09-06T00:43:26.112Z,955.50
2022-09-06T00:44:26.081Z,955.38
2022-09-06T00:45:26.079Z,955.44
2022-09-06T00:46:26.235Z,955.48
2022-09-06T00:47:26.316Z,955.45
2022-09-06T00:48:26.160Z,955.40
2022-09-06T00:49:26.035Z,955.47
2022-09-06T00:50:26.011Z,955.43
2022-09-06T00:51:26.000Z,955.49
2022-09-06T00:52:25.991Z,955.48
2022-09-06T00:53:25.991Z,955.50
2022-09-06T00:54:25.971Z,955.50
2022-09-06T00:55:25.961Z,955.58
2022-09-06T00:56:25.950Z,955.60
2022-09-06T00:57:25.939Z,955.57
2022-09-06T00:58:25.942Z,955.55
2022-09-06T00:59:25.927Z,955.51
2022-09-06T01:00:25.910Z,955.52
2022-09-06T01:01:26.010Z,955.52
2022-09-06T01:02:26.713Z,955.56
2022-09-06T01:03:25.889Z,955.54
2022-09-06T01:04:25.861Z,955.53
2022-09-06T01:05:25.840Z,955.49
2022-09-06T01:06:25.828Z,955.57
2022-09-06T01:07:25.819Z,955.54
2022-09-06T01:08:25.973Z,955.57
2022-09-06T01:09:25.788Z,955.55
2022-09-06T01:10:25.779Z,955.65
2022-09-06T01:11:25.776Z,955.62
2022-09-06T01:12:25.758Z,955.67
2022-09-06T01:13:25.749Z,955.63
2022-09-06T01:14:25.780Z,955.67
2022-09-06T01:15:25.789Z,955.59
2022-09-06T01:16:25.708Z,955.58
2022-09-06T01:17:25.698Z,955.60
2022-09-06T01:18:25.688Z,955.55
2022-09-06T01:19:25.687Z,955.60
2022-09-06T01:20:25.658Z,955.59
2022-09-06T01:21:25.658Z,955.60
2022-09-06T01:22:25.646Z,955.59
2022-09-06T01:23:25.629Z,955.64
2022-09-06T01:24:25.636Z,955.57
2022-09-06T01:25:25.608Z,955.62
2022-09-06T01:26:25.597Z,955.59
2022-09-06T01:27:25.596Z,955.55
2022-09-06T01:28:25.566Z,955.56
2022-09-06T01:29:25.565Z,955.55
2022-09-06T01:30:25.559Z,955.57
2022-09-06T01:31:25.608Z,955.54
2022-09-06T01:32:25.526Z,955.55
2022-09-06T01:33:25.524Z,955.49
2022-09-06T01:34:25.515Z,955.52
2022-09-06T01:35:25.501Z,955.52
2022-09-06T01:36:25.487Z,955.51
2022-09-06T01:37:25.473Z,955.54
2022-09-06T01:38:25.556Z,955.60
2022-09-06T01:39:25.505Z,955.63
2022-09-06T01:40:25.446Z,955.54
2022-09-06T01:41:25.436Z,955.59
2022-09-06T01:42:25.405Z,955.60
2022-09-06T01:43:25.398Z,955.60
2022-09-06T01:44:25.394Z,955.52
2022-09-06T01:45:25.376Z,955.56
2022-09-06T01:46:25.397Z,955.57
2022-09-06T01:47:25.356Z,955.54
2022-09-06T01:48:25.343Z,955.55
2022-09-06T01:49:25.334Z,955.56
2022-09-06T01:50:25.314Z,955.56
2022-09-06T01:51:25.321Z,955.54
2022-09-06T01:52:25.296Z,955.58
2022-09-06T01:53:25.283Z,955.57
2022-09-06T01:54:25.274Z,955.61
2022-09-06T01:55:25.262Z,955.61
2022-09-06T01:56:25.253Z,955.66
2022-09-06T01:57:25.274Z,955.62
2022-09-06T01:58:25.240Z,955.65
2022-09-06T01:59:25.222Z,955.70
2022-09-06T02:00:25.206Z,955.68
2022-09-06T02:01:25.265Z,955.69
2022-09-06T02:02:25.210Z,955.69
2022-09-06T02:03:25.171Z,955.71
2022-09-06T02:04:25.152Z,955.70
2022-09-06T02:05:25.142Z,955.71
2022-09-06T02:06:25.143Z,955.72
2022-09-06T02:07:25.122Z,955.73
2022-09-06T02:08:25.193Z,955.75
2022-09-06T02:09:25.106Z,955.75
2022-09-06T02:10:25.084Z,955.70
2022-09-06T02:11:25.093Z,955.71
2022-09-06T02:12:25.062Z,955.70
2022-09-06T02:13:25.062Z,955.68
2022-09-06T02:14:25.041Z,955.64
2022-09-06T02:15:25.021Z,955.65
2022-09-06T02:16:25.060Z,955.64
2022-09-06T02:17:25.023Z,955.66
2022-09-06T02:18:25.079Z,955.64
2022-09-06T02:19:24.981Z,955.66
2022-09-06T02:20:24.972Z,955.71
2022-09-06T02:21:24.952Z,955.66
2022-09-06T02:22:24.955Z,955.68
2022-09-06T02:23:24.948Z,955.69
2022-09-06T02:24:24.919Z,955.67
2022-09-06T02:25:24.911Z,955.71
2022-09-06T02:26:24.900Z,955.72
2022-09-06T02:27:24.901Z,955.71
2022-09-06T02:28:25.016Z,955.71
2022-09-06T02:29:24.862Z,955.76
2022-09-06T02:30:24.954Z,955.71
2022-09-06T02:31:24.842Z,955.75
2022-09-06T02:32:24.829Z,955.80
2022-09-06T02:33:24.829Z,955.77
2022-09-06T02:34:24.809Z,955.77
2022-09-06T02:35:24.788Z,955.76
2022-09-06T02:36:24.788Z,955.70
2022-09-06T02:37:24.779Z,955.69
2022-09-06T02:38:24.772Z,955.72
2022-09-06T02:39:24.779Z,955.70
2022-09-06T02:40:24.746Z,955.69
2022-09-06T02:41:24.732Z,955.74
2022-09-06T02:42:24.729Z,955.74
2022-09-06T02:43:24.708Z,955.73
2022-09-06T02:44:24.696Z,955.74
2022-09-06T02:45:24.678Z,955.70
2022-09-06T02:46:24.721Z,955.66
2022-09-06T02:47:24.664Z,955.64
2022-09-06T02:48:24.734Z,955.70
2022-09-06T02:49:24.636Z,955.69
2022-09-06T02:50:24.617Z,955.69
2022-09-06T02:51:24.609Z,955.66
2022-09-06T02:52:24.596Z,955.68
2022-09-06T02:53:24.608Z,955.62
2022-09-06T02:54:24.576Z,955.68
2022-09-06T02:55:24.557Z,955.61
2022-09-06T02:56:24.558Z,955.72
2022-09-06T02:57:24.537Z,955.69
2022-09-06T02:58:24.611Z,955.73
2022-09-06T02:59:24.526Z,955.71
2022-09-06T03:00:24.515Z,955.71
2022-09-06T03:01:24.530Z,955.74
2022-09-06T03:02:24.522Z,955.67
2022-09-06T03:03:24.475Z,955.70
2022-09-06T03:04:24.455Z,955.65
2022-09-06T03:05:24.463Z,955.62
2022-09-06T03:06:24.435Z,955.63
2022-09-06T03:07:24.424Z,955.62
2022-09-06T03:08:24.414Z,955.63
2022-09-06T03:09:24.415Z,955.63
2022-09-06T03:10:24.393Z,955.60
2022-09-06T03:11:24.385Z,955.61
2022-09-06T03:12:24.364Z,955.61
2022-09-06T03:13:24.354Z,955.59
2022-09-06T03:14:24.334Z,955.62
2022-09-06T03:15:24.336Z,955.58
2022-09-06T03:16:24.371Z,955.61
2022-09-06T03:17:24.312Z,955.58
2022-09-06T03:18:24.295Z,955.56
2022-09-06T03:19:24.283Z,955.54
2022-09-06T03:20:24.283Z,955.58
2022-09-06T03:21:24.273Z,955.61
2022-09-06T03:22:24.243Z,955.57
2022-09-06T03:23:24.232Z,955.59
2022-09-06T03:24:24.231Z,955.55
2022-09-06T03:25:24.223Z,955.58
2022-09-06T03:26:24.202Z,955.58
2022-09-06T03:27:24.201Z,955.61
2022-09-06T03:28:24.180Z,955.54
2022-09-06T03:29:24.172Z,955.63
2022-09-06T03:30:24.217Z,955.63
2022-09-06T03:31:24.142Z,955.69
2022-09-06T03:32:24.143Z,955.63
2022-09-06T03:33:24.123Z,955.61
2022-09-06T03:34:24.111Z,955.68
2022-09-06T03:35:24.101Z,955.61
2022-09-06T03:36:24.081Z,955.60
2022-09-06T03:37:24.081Z,955.60
2022-09-06T03:38:24.061Z,955.60
2022-09-06T03:39:24.091Z,955.62
2022-09-06T03:40:24.040Z,955.56
2022-09-06T03:41:24.041Z,955.58
2022-09-06T03:42:24.010Z,955.58
2022-09-06T03:43:24.010Z,955.57
2022-09-06T03:44:23.992Z,955.56
2022-09-06T03:45:23.993Z,955.52
2022-09-06T03:46:24.010Z,955.54
2022-09-06T03:47:23.971Z,955.55
2022-09-06T03:48:23.971Z,955.56
2022-09-06T03:49:23.944Z,955.47
2022-09-06T03:50:23.941Z,955.57
2022-09-06T03:51:23.916Z,955.54
2022-09-06T03:52:23.909Z,955.60
2022-09-06T03:53:23.892Z,955.52
2022-09-06T03:54:23.869Z,955.60
2022-09-06T03:55:23.868Z,955.61
2022-09-06T03:56:23.849Z,955.65
2022-09-06T03:57:23.864Z,955.67
2022-09-06T03:58:23.869Z,955.61
2022-09-06T03:59:23.818Z,955.53
2022-09-06T04:00:23.809Z,955.55
2022-09-06T04:01:23.828Z,955.52
2022-09-06T04:02:23.847Z,955.57
2022-09-06T04:03:23.786Z,955.57
2022-09-06T04:04:23.758Z,955.53
2022-09-06T04:05:23.747Z,955.58
2022-09-06T04:06:23.740Z,955.55
2022-09-06T04:07:23.727Z,955.63
2022-09-06T04:08:23.783Z,955.72
2022-09-06T04:09:23.707Z,955.65
2022-09-06T04:10:23.687Z,955.61
2022-09-06T04:11:23.678Z,955.62
2022-09-06T04:12:23.668Z,955.61
2022-09-06T04:13:23.667Z,955.67
2022-09-06T04:14:23.636Z,955.63
2022-09-06T04:15:23.637Z,955.70
2022-09-06T04:16:23.658Z,955.63
2022-09-06T04:17:23.616Z,955.55
2022-09-06T04:18:23.682Z,955.60
2022-09-06T04:19:23.586Z,955.62
2022-09-06T04:20:23.578Z,955.62
2022-09-06T04:21:23.565Z,955.55
2022-09-06T04:22:23.546Z,955.62
2022-09-06T04:23:23.546Z,955.60
2022-09-06T04:24:23.525Z,955.68
2022-09-06T04:25:23.540Z,955.62
2022-09-06T04:26:23.505Z,955.64
2022-09-06T04:27:23.495Z,955.62
2022-09-06T04:28:23.518Z,955.70
2022-09-06T04:29:23.508Z,955.75
2022-09-06T04:30:23.455Z,955.71
2022-09-06T04:31:23.484Z,955.74
2022-09-06T04:32:23.434Z,955.69
2022-09-06T04:33:23.434Z,955.69
2022-09-06T04:34:24.265Z,955.70
2022-09-06T04:35:23.405Z,955.76
2022-09-06T04:36:23.395Z,955.72
2022-09-06T04:37:23.373Z,955.71
2022-09-06T04:38:23.400Z,955.67
2022-09-06T04:39:23.390Z,955.66
2022-09-06T04:40:23.341Z,955.66
2022-09-06T04:41:23.332Z,955.63
2022-09-06T04:42:23.315Z,955.62
2022-09-06T04:43:23.315Z,955.65
2022-09-06T04:44:23.304Z,955.63
2022-09-06T04:45:23.291Z,955.66
2022-09-06T04:46:23.345Z,955.69
2022-09-06T04:47:23.262Z,955.70
2022-09-06T04:48:23.305Z,955.77
2022-09-06T04:49:23.241Z,955.78
2022-09-06T04:50:23.232Z,955.73
2022-09-06T04:51:23.213Z,955.75
2022-09-06T04:52:26.004Z,955.72
2022-09-06T04:53:24.192Z,955.72
2022-09-06T04:54:23.171Z,955.74
2022-09-06T04:55:23.172Z,955.78
2022-09-06T04:56:23.207Z,955.75
2022-09-06T04:57:23.147Z,955.76
2022-09-06T04:58:23.171Z,955.91
2022-09-06T04:59:23.123Z,955.88
2022-09-06T05:00:23.109Z,955.92
2022-09-06T05:01:23.175Z,956.01
2022-09-06T05:02:23.141Z,956.08
2022-09-06T05:03:23.074Z,956.14
2022-09-06T05:04:23.061Z,956.17
2022-09-06T05:05:23.127Z,956.20
2022-09-06T05:06:23.051Z,956.22
2022-09-06T05:07:23.030Z,956.19
2022-09-06T05:08:23.110Z,956.24
2022-09-06T05:09:23.007Z,956.23
2022-09-06T05:10:22.989Z,956.34
2022-09-06T05:11:22.996Z,956.38
2022-09-06T05:12:22.973Z,956.35
2022-09-06T05:13:22.960Z,956.39
2022-09-06T05:14:22.947Z,956.40
2022-09-06T05:15:22.937Z,956.48
2022-09-06T05:16:22.931Z,956.46
2022-09-06T05:17:22.929Z,956.42
2022-09-06T05:18:22.907Z,956.36
2022-09-06T05:19:22.902Z,956.38
2022-09-06T05:20:22.936Z,956.47
2022-09-06T05:21:22.878Z,956.44
2022-09-06T05:22:22.856Z,956.41
2022-09-06T05:23:22.857Z,956.38
2022-09-06T05:24:22.831Z,956.32
2022-09-06T05:25:22.817Z,956.34
2022-09-06T05:26:22.808Z,956.37
2022-09-06T05:27:22.808Z,956.25
2022-09-06T05:28:22.787Z,956.32
2022-09-06T05:29:22.768Z,956.26
2022-09-06T05:30:22.760Z,956.24
2022-09-06T05:31:22.786Z,956.21
2022-09-06T05:32:22.755Z,956.20
2022-09-06T05:33:22.741Z,956.20
2022-09-06T05:34:22.721Z,956.20
2022-09-06T05:35:22.708Z,956.21
2022-09-06T05:36:22.688Z,956.19
2022-09-06T05:37:22.676Z,956.29
2022-09-06T05:38:22.677Z,956.21
2022-09-06T05:39:22.656Z,956.25
2022-09-06T05:40:22.645Z,956.36
2022-09-06T05:41:22.627Z,956.36
2022-09-06T05:42:22.626Z,956.36
2022-09-06T05:43:22.641Z,956.30
2022-09-06T05:44:22.598Z,956.30
2022-09-06T05:45:22.609Z,956.24
2022-09-06T05:46:22.575Z,956.27
2022-09-06T05:47:22.563Z,956.27
2022-09-06T05:48:22.612Z,956.26
2022-09-06T05:49:22.543Z,956.18
2022-09-06T05:50:22.526Z,956.25
2022-09-06T05:51:22.515Z,956.28
2022-09-06T05:52:22.515Z,956.22
2022-09-06T05:53:22.495Z,956.27
2022-09-06T05:54:22.484Z,956.28
2022-09-06T05:55:22.464Z,956.30
2022-09-06T05:56:22.471Z,956.32
2022-09-06T05:57:22.443Z,956.36
2022-09-06T05:58:22.454Z,956.36
2022-09-06T05:59:22.423Z,956.40
2022-09-06T06:00:22.413Z,956.40
2022-09-06T06:01:22.500Z,956.37
2022-09-06T06:02:22.444Z,956.44
2022-09-06T06:03:22.385Z,956.44
2022-09-06T06:04:22.371Z,956.45
2022-09-06T06:05:22.363Z,956.42
2022-09-06T06:06:22.342Z,956.44
2022-09-06T06:07:22.332Z,956.37
2022-09-06T06:08:22.334Z,956.30
2022-09-06T06:09:22.303Z,956.34
2022-09-06T06:10:22.312Z,956.31
2022-09-06T06:11:22.284Z,956.30
2022-09-06T06:12:22.272Z,956.34
2022-09-06T06:13:22.261Z,956.36
2022-09-06T06:14:22.273Z,956.50
2022-09-06T06:15:22.232Z,956.56
2022-09-06T06:16:22.326Z,956.66
2022-09-06T06:17:22.212Z,956.78
2022-09-06T06:18:22.204Z,956.87
2022-09-06T06:19:22.186Z,956.82
2022-09-06T06:20:22.191Z,956.93
2022-09-06T06:21:22.167Z,957.03
2022-09-06T06:22:22.161Z,957.01
2022-09-06T06:23:22.141Z,957.04
2022-09-06T06:24:22.141Z,957.08
2022-09-06T06:25:22.119Z,957.22
2022-09-06T06:26:22.109Z,957.21
2022-09-06T06:27:22.103Z,957.22
2022-09-06T06:28:22.169Z,957.33
2022-09-06T06:29:22.081Z,957.29
2022-09-06T06:30:22.063Z,957.32
2022-09-06T06:31:22.078Z,957.27
2022-09-06T06:32:22.042Z,957.26
2022-09-06T06:33:22.058Z,957.22
2022-09-06T06:34:22.038Z,957.30
2022-09-06T06:35:22.020Z,957.33
2022-09-06T06:36:21.992Z,957.26
2022-09-06T06:37:21.980Z,957.30
2022-09-06T06:38:22.009Z,957.26
2022-09-06T06:39:21.949Z,957.31
2022-09-06T06:40:21.970Z,957.38
2022-09-06T06:41:21.931Z,957.31
2022-09-06T06:42:21.929Z,957.29
2022-09-06T06:43:21.910Z,957.28
2022-09-06T06:44:21.920Z,957.20
2022-09-06T06:45:21.992Z,957.28
2022-09-06T06:46:21.880Z,957.39
2022-09-06T06:47:21.861Z,957.35
2022-09-06T06:48:21.866Z,957.35
2022-09-06T06:49:21.839Z,957.37
2022-09-06T06:50:21.851Z,957.35
2022-09-06T06:51:21.819Z,957.38
2022-09-06T06:52:21.825Z,957.37
2022-09-06T06:53:21.787Z,957.40
2022-09-06T06:54:21.778Z,957.36
2022-09-06T06:55:21.778Z,957.33
2022-09-06T06:56:21.768Z,957.33
2022-09-06T06:57:21.785Z,957.31
2022-09-06T06:58:21.807Z,957.26
2022-09-06T06:59:21.718Z,957.18
2022-09-06T07:00:25.152Z,957.24
2022-09-06T07:01:22.858Z,957.19
2022-09-06T07:02:21.730Z,957.24
2022-09-06T07:03:21.680Z,957.16
2022-09-06T07:04:21.668Z,957.18
2022-09-06T07:08:22.684Z,957.15
2022-09-06T07:09:21.607Z,957.15
2022-09-06T07:10:37.014Z,957.08
2022-09-06T07:11:24.449Z,957.07
2022-09-06T07:12:21.583Z,957.08
2022-09-06T07:13:21.620Z,957.04
2022-09-06T07:14:21.545Z,957.05
2022-09-06T07:15:21.534Z,957.04
2022-09-06T07:16:21.556Z,957.10
2022-09-06T07:17:21.519Z,957.18
2022-09-06T07:18:21.495Z,957.25
2022-09-06T07:20:22.561Z,957.24
2022-09-06T07:22:22.476Z,957.14
2022-09-06T07:24:22.426Z,957.07
2022-09-06T07:25:21.782Z,957.09
2022-09-06T07:26:21.405Z,957.07
2022-09-06T07:28:22.648Z,957.03
2022-09-06T07:29:21.387Z,957.06
2022-09-06T07:30:21.393Z,957.06
2022-09-06T07:32:22.365Z,957.07
2022-09-06T07:33:21.390Z,957.03
2022-09-06T07:34:21.313Z,957.05
2022-09-06T07:35:21.304Z,956.98
2022-09-06T07:36:21.319Z,956.96
2022-09-06T07:37:21.328Z,956.87
2022-09-06T07:38:21.264Z,956.92
2022-09-06T07:39:21.253Z,956.83
2022-09-06T07:40:21.244Z,956.90
2022-09-06T07:41:21.232Z,956.88
2022-09-06T07:42:21.215Z,956.87
2022-09-06T07:43:21.246Z,956.85
2022-09-06T07:44:21.195Z,956.87
2022-09-06T07:45:21.185Z,956.89
2022-09-06T07:46:21.191Z,956.92
2022-09-06T07:48:22.199Z,956.85
2022-09-06T07:49:21.132Z,956.88
2022-09-06T07:51:22.114Z,956.90
2022-09-06T07:53:29.793Z,956.79
2022-09-06T07:54:30.794Z,956.79
2022-09-06T07:55:22.062Z,956.75
2022-09-06T07:56:21.052Z,956.72
2022-09-06T07:57:21.042Z,956.77
2022-09-06T07:58:21.031Z,956.74
2022-09-06T07:59:21.032Z,956.78
2022-09-06T08:00:21.018Z,956.73
2022-09-06T08:01:21.062Z,956.75
2022-09-06T08:02:21.077Z,956.65
2022-09-06T08:03:21.095Z,956.66
2022-09-06T08:04:21.026Z,956.70
2022-09-06T08:06:21.941Z,956.78
2022-09-06T08:09:21.903Z,956.70
2022-09-06T08:10:21.007Z,956.71
2022-09-06T08:11:20.928Z,956.75
2022-09-06T08:12:20.870Z,956.79
2022-09-06T08:13:21.015Z,956.80
2022-09-06T08:14:20.843Z,956.76
2022-09-06T08:15:20.851Z,956.76
2022-09-06T08:16:20.886Z,956.77
2022-09-06T08:17:20.822Z,956.77
2022-09-06T08:18:20.801Z,956.74
2022-09-06T08:19:20.790Z,956.67
2022-09-06T08:20:20.830Z,956.77
2022-09-06T08:21:20.760Z,956.74
2022-09-06T08:22:20.761Z,956.76
2022-09-06T08:23:20.743Z,956.75
2022-09-06T08:24:20.740Z,956.72
2022-09-06T08:25:20.720Z,956.74
2022-09-06T08:26:20.710Z,956.76
2022-09-06T08:27:20.691Z,956.75
2022-09-06T08:28:20.682Z,956.86
2022-09-06T08:29:20.727Z,956.80
2022-09-06T08:30:20.660Z,956.85
2022-09-06T08:31:20.766Z,956.87
2022-09-06T08:32:20.640Z,956.85
2022-09-06T08:33:20.696Z,956.81
2022-09-06T08:34:20.623Z,956.84
2022-09-06T08:35:20.601Z,956.86
2022-09-06T08:36:20.625Z,956.88
2022-09-06T08:37:24.841Z,956.87
2022-09-06T08:38:20.560Z,956.85
2022-09-06T08:39:20.593Z,956.82
2022-09-06T08:40:20.537Z,956.81
2022-09-06T08:41:20.519Z,956.83
2022-09-06T08:42:20.531Z,956.79
2022-09-06T08:43:20.500Z,956.77
2022-09-06T08:45:21.503Z,956.79
2022-09-06T08:46:20.521Z,956.78
2022-09-06T08:47:20.467Z,956.79
2022-09-06T08:48:20.449Z,956.73
2022-09-06T08:49:20.430Z,956.71
2022-09-06T08:50:20.437Z,956.75
2022-09-06T08:51:20.418Z,956.75
2022-09-06T08:52:20.419Z,956.68
2022-09-06T08:53:20.403Z,956.77
2022-09-06T08:54:20.379Z,956.72
2022-09-06T08:55:20.360Z,956.69
2022-09-06T08:56:20.417Z,956.64
2022-09-06T08:57:20.358Z,956.61
2022-09-06T08:58:20.329Z,956.59
2022-09-06T08:59:20.318Z,956.60
2022-09-06T09:00:20.306Z,956.57
2022-09-06T09:01:20.340Z,956.50
2022-09-06T09:02:20.347Z,956.48
2022-09-06T09:03:20.268Z,956.45
2022-09-06T09:04:20.258Z,956.45
2022-09-06T09:05:20.247Z,956.42
2022-09-06T09:06:20.235Z,956.42
2022-09-06T09:07:20.219Z,956.34
2022-09-06T09:08:20.217Z,956.39
2022-09-06T09:09:20.197Z,956.41
2022-09-06T09:10:20.195Z,956.35
2022-09-06T09:11:20.196Z,956.41
2022-09-06T09:12:20.176Z,956.37
2022-09-06T09:13:20.149Z,956.28
2022-09-06T09:14:20.138Z,956.28
2022-09-06T09:15:20.127Z,956.28
2022-09-06T09:16:20.200Z,956.32
2022-09-06T09:17:20.147Z,956.28
2022-09-06T09:18:20.107Z,956.17
2022-09-06T09:19:20.097Z,956.21
2022-09-06T09:20:20.078Z,956.23
2022-09-06T09:21:20.068Z,956.16
2022-09-06T09:22:20.047Z,956.19
2022-09-06T09:23:20.037Z,956.16
2022-09-06T09:24:20.025Z,956.06
2022-09-06T09:25:20.008Z,956.08
2022-09-06T09:26:20.013Z,956.11
2022-09-06T09:27:20.034Z,956.09
2022-09-06T09:28:19.978Z,956.06
2022-09-06T09:29:23.980Z,956.08
2022-09-06T09:31:20.991Z,956.02
2022-09-06T09:32:19.947Z,956.04
2022-09-06T09:33:19.918Z,956.02
2022-09-06T09:34:19.906Z,956.04
2022-09-06T09:35:19.894Z,956.03
2022-09-06T09:36:19.895Z,955.97
2022-09-06T09:38:20.865Z,955.89
2022-09-06T09:39:19.846Z,955.89
2022-09-06T09:40:19.929Z,955.88
2022-09-06T09:41:19.826Z,955.99
2022-09-06T09:42:19.815Z,955.93
2022-09-06T09:43:19.836Z,955.89
2022-09-06T09:44:19.795Z,955.87
2022-09-06T09:45:19.786Z,955.88
2022-09-06T09:46:19.795Z,955.90
2022-09-06T09:47:19.766Z,955.91
2022-09-06T09:48:19.765Z,955.90
2022-09-06T09:49:19.735Z,955.86
2022-09-06T09:50:19.726Z,955.86
2022-09-06T09:51:26.152Z,955.76
2022-09-06T09:52:20.713Z,955.83
2022-09-06T09:53:19.695Z,955.82
2022-09-06T09:54:19.676Z,955.79
2022-09-06T09:55:19.664Z,955.83
2022-09-06T09:56:19.654Z,955.82
2022-09-06T09:57:19.658Z,955.80
2022-09-06T09:58:19.629Z,955.78
2022-09-06T09:59:19.615Z,955.76
2022-09-06T10:00:19.614Z,955.74
2022-09-06T10:01:19.604Z,955.69
2022-09-06T10:02:19.585Z,955.75
2022-09-06T10:03:19.607Z,955.78
2022-09-06T10:05:20.548Z,955.77
2022-09-06T10:07:20.523Z,955.66
2022-09-06T10:08:19.524Z,955.65
2022-09-06T10:09:19.555Z,955.68
2022-09-06T10:10:19.494Z,955.60
2022-09-06T10:11:19.474Z,955.61
2022-09-06T10:12:19.467Z,955.68
2022-09-06T10:13:19.464Z,955.61
2022-09-06T10:14:19.445Z,955.64
2022-09-06T10:15:19.424Z,955.60
2022-09-06T10:16:19.479Z,955.62
2022-09-06T10:17:19.405Z,955.63
2022-09-06T10:18:19.394Z,955.60
2022-09-06T10:19:19.394Z,955.57
2022-09-06T10:20:19.384Z,955.62
2022-09-06T10:21:19.354Z,955.58
2022-09-06T10:22:19.353Z,955.57
2022-09-06T10:25:19.325Z,955.55
2022-09-06T10:26:19.305Z,955.52
2022-09-06T10:27:19.294Z,955.56
2022-09-06T10:28:19.283Z,955.55
2022-09-06T10:29:19.276Z,955.49
2022-09-06T10:30:19.320Z,955.45
2022-09-06T10:31:19.268Z,955.54
2022-09-06T10:32:19.233Z,955.47
2022-09-06T10:33:19.222Z,955.47
2022-09-06T10:34:19.217Z,955.48
2022-09-06T10:35:19.203Z,955.43
2022-09-06T10:36:19.193Z,955.45
2022-09-06T10:37:19.176Z,955.43
2022-09-06T10:38:19.172Z,955.46
2022-09-06T10:39:19.159Z,955.43
2022-09-06T10:40:19.156Z,955.39
2022-09-06T10:41:19.143Z,955.35
2022-09-06T10:42:19.122Z,955.48
2022-09-06T10:43:19.115Z,955.46
2022-09-06T10:44:19.104Z,955.45
2022-09-06T10:45:19.083Z,955.44
2022-09-06T10:46:19.126Z,955.50
2022-09-06T10:47:19.064Z,955.48
2022-09-06T10:48:19.054Z,955.45
2022-09-06T10:49:19.065Z,955.39
2022-09-06T10:50:19.033Z,955.35
2022-09-06T10:51:19.023Z,955.35
2022-09-06T10:52:19.004Z,955.37
2022-09-06T10:53:18.993Z,955.30
2022-09-06T10:54:19.033Z,955.24
2022-09-06T10:55:18.971Z,955.26
2022-09-06T10:56:18.961Z,955.23
2022-09-06T10:58:20.399Z,955.22
2022-09-06T11:00:19.917Z,955.18
2022-09-06T11:01:18.930Z,955.23
2022-09-06T11:02:19.012Z,955.14
2022-09-06T11:04:19.914Z,955.16
2022-09-06T11:06:20.679Z,955.13
2022-09-06T11:07:18.843Z,955.12
2022-09-06T11:09:19.805Z,955.06
2022-09-06T11:10:18.802Z,955.12
2022-09-06T11:11:18.783Z,955.11
2022-09-06T11:12:18.834Z,955.14
2022-09-06T11:13:18.793Z,955.15
2022-09-06T11:14:18.757Z,955.17
2022-09-06T11:15:18.743Z,955.12
2022-09-06T11:16:18.774Z,955.15
2022-09-06T11:17:18.715Z,955.10
2022-09-06T11:18:18.727Z,955.07
2022-09-06T11:19:18.694Z,955.03
2022-09-06T11:20:18.686Z,955.04
2022-09-06T11:21:19.595Z,955.05
2022-09-06T11:22:18.654Z,955.00
2022-09-06T11:23:18.662Z,955.02
2022-09-06T11:24:18.693Z,955.08
2022-09-06T11:25:18.632Z,955.06
2022-09-06T11:26:18.612Z,955.01
2022-09-06T11:27:18.612Z,955.04
2022-09-06T11:28:18.593Z,954.99
2022-09-06T11:29:18.574Z,954.89
2022-09-06T11:30:18.563Z,954.98
2022-09-06T11:32:19.572Z,954.95
2022-09-06T11:33:18.543Z,954.91
2022-09-06T11:34:18.523Z,954.97
2022-09-06T11:35:18.503Z,954.92
2022-09-06T11:36:18.503Z,954.99
2022-09-06T11:37:18.655Z,954.96
2022-09-06T11:38:18.533Z,955.03
2022-09-06T11:39:18.629Z,954.92
2022-09-06T11:41:19.434Z,954.92
2022-09-06T11:42:18.423Z,954.91
2022-09-06T11:43:18.414Z,954.88
2022-09-06T11:44:18.424Z,954.89
2022-09-06T11:45:18.392Z,954.87
2022-09-06T11:46:20.497Z,954.85
2022-09-06T11:47:18.373Z,954.89
2022-09-06T11:48:18.363Z,954.89
2022-09-06T11:49:18.362Z,954.81
2022-09-06T11:50:18.336Z,954.86
2022-09-06T11:51:18.321Z,954.85
2022-09-06T11:52:18.312Z,954.82
2022-09-06T11:53:18.293Z,954.84
2022-09-06T11:54:18.295Z,954.84
2022-09-06T11:55:22.621Z,954.85
2022-09-06T11:56:18.271Z,954.83
2022-09-06T11:57:18.268Z,954.80
2022-09-06T11:58:18.243Z,954.79
2022-09-06T11:59:18.231Z,954.78
2022-09-06T12:00:18.253Z,954.72
2022-09-06T12:01:18.203Z,954.72
2022-09-06T12:02:18.499Z,954.68
2022-09-06T12:04:19.173Z,954.64
2022-09-06T12:05:18.892Z,954.72
2022-09-06T12:06:18.163Z,954.63
2022-09-06T12:07:18.135Z,954.68
2022-09-06T12:08:18.122Z,954.61
2022-09-06T12:09:18.113Z,954.69
2022-09-06T12:10:18.115Z,954.66
2022-09-06T12:11:18.094Z,954.69
2022-09-06T12:12:18.082Z,954.67
2022-09-06T12:13:18.062Z,954.71
2022-09-06T12:14:18.063Z,954.66
2022-09-06T12:15:18.051Z,954.58
2022-09-06T12:16:18.148Z,954.68
2022-09-06T12:17:18.022Z,954.61
2022-09-06T12:18:18.012Z,954.57
2022-09-06T12:19:17.992Z,954.57
2022-09-06T12:20:17.994Z,954.45
2022-09-06T12:21:17.983Z,954.60
2022-09-06T12:22:17.963Z,954.55
2022-09-06T12:23:17.951Z,954.51
2022-09-06T12:24:17.944Z,954.49
2022-09-06T12:25:17.932Z,954.46
2022-09-06T12:26:17.923Z,954.50
2022-09-06T12:27:17.913Z,954.39
2022-09-06T12:28:17.893Z,954.46
2022-09-06T12:29:17.883Z,954.46
2022-09-06T12:30:17.872Z,954.50
2022-09-06T12:31:18.373Z,954.50
2022-09-06T12:32:17.855Z,954.47
2022-09-06T12:33:17.853Z,954.43
2022-09-06T12:34:17.822Z,954.49
2022-09-06T12:36:18.808Z,954.46
2022-09-06T12:37:17.858Z,954.42
2022-09-06T12:38:17.782Z,954.45
2022-09-06T12:39:17.772Z,954.42
2022-09-06T12:40:17.803Z,954.42
2022-09-06T12:41:17.744Z,954.40
2022-09-06T12:42:17.732Z,954.46
2022-09-06T12:43:17.714Z,954.44
2022-09-06T12:44:17.704Z,954.43
2022-09-06T12:45:17.711Z,954.43
2022-09-06T12:46:17.719Z,954.40
2022-09-06T12:47:17.670Z,954.40
2022-09-06T12:48:17.663Z,954.48
2022-09-06T12:49:17.651Z,954.44
2022-09-06T12:50:17.641Z,954.46
2022-09-06T12:51:17.640Z,954.49
2022-09-06T12:52:17.614Z,954.44
2022-09-06T12:53:20.426Z,954.45
2022-09-06T12:54:18.594Z,954.45
2022-09-06T12:55:17.583Z,954.50
2022-09-06T12:56:17.565Z,954.51
2022-09-06T12:57:17.575Z,954.44
2022-09-06T12:58:17.553Z,954.44